Time;durP1;ratioP1;P1;durP2;ratioP2;P2;SDS_P1;SDS_P2;PMS_P1;PMS_P2;Temp;Humidity;BMP_temperature;BMP_pressure;BME280_temperature;BME280_humidity;BME280_pressure;Samples;Min_cycle;Max_cycle;Signal;HPM_P1;HPM_P2
2022/12/14 00:01:53;;;;;;;;;;;-0.40;93.10;;;;;;5089417;28;20011;-74
2022/12/14 00:04:19;;;;;;;;;;;-0.40;93.10;;;;;;5089633;28;19912;-73
2022/12/14 00:06:44;;;;;;;;;;;-0.40;93.10;;;;;;5089472;28;20617;-74
2022/12/14 00:09:10;;;;;;;;;;;-0.30;93.20;;;;;;5090329;28;19916;-74
2022/12/14 00:11:36;;;;;;;;;;;-0.40;93.10;;;;;;5088466;28;19919;-74
2022/12/14 00:14:02;;;;;;;;;;;-0.40;93.10;;;;;;5089391;28;20041;-73
2022/12/14 00:16:28;;;;;;;;;;;-0.40;93.10;;;;;;5089493;28;19935;-74
2022/12/14 00:18:55;;;;;;;;;;;-0.40;93.10;;;;;;5089370;28;19948;-74
2022/12/14 00:21:21;;;;;;;;;;;-0.40;93.10;;;;;;5088949;28;19923;-74
2022/12/14 00:23:47;;;;;;;;;;;-0.40;93.10;;;;;;5089553;28;20357;-73
2022/12/14 00:26:13;;;;;;;;;;;-0.40;93.10;;;;;;5095197;28;20026;-74
2022/12/14 00:28:40;;;;;;;;;;;-0.40;93.10;;;;;;5109652;28;19912;-73
2022/12/14 00:31:05;;;;;;;;;;;-0.40;93.10;;;;;;5109224;28;20372;-74
2022/12/14 00:33:31;;;;;;;;;;;-0.40;93.10;;;;;;5109677;28;19912;-74
2022/12/14 00:35:57;;;;;;;;;;;-0.40;93.10;;;;;;5093057;28;20011;-73
2022/12/14 00:38:22;;;;;;;;;;;-0.40;93.10;;;;;;5089229;28;19908;-74
2022/12/14 00:40:48;;;;;;;;;;;-0.40;93.10;;;;;;5088124;28;20359;-73
2022/12/14 00:43:14;;;;;;;;;;;-0.40;93.10;;;;;;5092731;28;20396;-73
2022/12/14 00:45:42;;;;;;;;;;;-0.40;93.10;;;;;;5067569;28;19956;-73
2022/12/14 00:48:07;;;;;;;;;;;-0.40;93.10;;;;;;5068838;28;20277;-74
2022/12/14 00:50:33;;;;;;;;;;;-0.40;93.10;;;;;;5068260;28;19917;-73
2022/12/14 00:52:58;;;;;;;;;;;-0.40;93.10;;;;;;5068720;28;19912;-73
2022/12/14 00:55:24;;;;;;;;;;;-0.40;93.10;;;;;;5068243;28;19918;-73
2022/12/14 00:57:50;;;;;;;;;;;-0.40;93.10;;;;;;5068544;28;19916;-73
2022/12/14 01:00:15;;;;;;;;;;;-0.40;93.10;;;;;;5094833;28;19963;-74
2022/12/14 01:02:41;;;;;;;;;;;-0.40;93.10;;;;;;5086003;28;19959;-74
2022/12/14 01:05:06;;;;;;;;;;;-0.40;93.10;;;;;;5088480;28;20300;-73
2022/12/14 01:07:32;;;;;;;;;;;-0.40;93.10;;;;;;5088804;28;19908;-73
2022/12/14 01:09:57;;;;;;;;;;;-0.40;93.10;;;;;;5087882;28;19973;-74
2022/12/14 01:12:23;;;;;;;;;;;-0.40;93.00;;;;;;5088494;28;19919;-74
2022/12/14 01:14:48;;;;;;;;;;;-0.40;93.00;;;;;;5088461;28;20507;-74
2022/12/14 01:17:14;;;;;;;;;;;-0.40;93.00;;;;;;5089367;28;19947;-74
2022/12/14 01:19:39;;;;;;;;;;;-0.50;93.00;;;;;;5087245;28;20057;-74
2022/12/14 01:22:05;;;;;;;;;;;-0.50;93.00;;;;;;5087294;28;20555;-73
2022/12/14 01:24:30;;;;;;;;;;;-0.40;93.00;;;;;;5087513;28;19966;-73
2022/12/14 01:26:56;;;;;;;;;;;-0.40;93.00;;;;;;5087940;28;19912;-74
2022/12/14 01:29:21;;;;;;;;;;;-0.40;93.00;;;;;;5087746;28;19912;-74
2022/12/14 01:31:47;;;;;;;;;;;-0.40;93.00;;;;;;5088110;28;19912;-73
2022/12/14 01:34:12;;;;;;;;;;;-0.40;93.00;;;;;;5089119;28;19916;-74
2022/12/14 01:36:38;;;;;;;;;;;-0.40;93.00;;;;;;5087189;28;19912;-74
2022/12/14 01:39:08;;;;;;;;;;;-0.40;93.00;;;;;;5088231;28;19912;-73
2022/12/14 01:41:38;;;;;;;;;;;-0.40;93.00;;;;;;5087428;28;20014;-74
2022/12/14 01:44:06;;;;;;;;;;;-0.50;93.00;;;;;;5088358;28;19998;-73
2022/12/14 01:46:38;;;;;;;;;;;-0.50;93.00;;;;;;5087941;28;19956;-73
2022/12/14 01:49:24;;;;;;;;;;;-0.50;93.00;;;;;;5088871;28;19955;-74
2022/12/14 01:51:52;;;;;;;;;;;-0.50;93.00;;;;;;5087494;28;19912;-74
2022/12/14 01:54:18;;;;;;;;;;;-0.50;93.00;;;;;;5087246;28;19978;-74
2022/12/14 01:56:44;;;;;;;;;;;-0.50;93.00;;;;;;5087606;28;20452;-74
2022/12/14 01:59:13;;;;;;;;;;;-0.50;93.00;;;;;;5087705;28;19912;-74
2022/12/14 02:01:38;;;;;;;;;;;-0.50;93.00;;;;;;5085567;28;19916;-73
2022/12/14 02:04:04;;;;;;;;;;;-0.50;93.00;;;;;;5087650;28;20408;-74
2022/12/14 02:06:34;;;;;;;;;;;-0.50;93.00;;;;;;5088393;28;19968;-73
2022/12/14 02:08:59;;;;;;;;;;;-0.50;93.00;;;;;;5087258;28;19987;-73
2022/12/14 02:11:34;;;;;;;;;;;-0.50;93.00;;;;;;5086246;28;19943;-74
2022/12/14 02:13:59;;;;;;;;;;;-0.50;93.00;;;;;;5087308;28;20505;-73
2022/12/14 02:16:25;;;;;;;;;;;-0.50;93.00;;;;;;5087252;28;19943;-73
2022/12/14 02:18:50;;;;;;;;;;;-0.50;93.30;;;;;;5087193;28;19999;-74
2022/12/14 02:21:36;;;;;;;;;;;-0.50;93.00;;;;;;5086944;28;19922;-74
2022/12/14 02:24:01;;;;;;;;;;;-0.50;92.90;;;;;;5091979;28;19916;-74
2022/12/14 02:26:30;;;;;;;;;;;-0.50;93.00;;;;;;5107198;28;19919;-74
2022/12/14 02:29:14;;;;;;;;;;;-0.50;93.00;;;;;;5107475;28;19916;-74
2022/12/14 02:31:58;;;;;;;;;;;-0.50;93.00;;;;;;5107084;28;19995;-74
2022/12/14 02:34:29;;;;;;;;;;;-0.50;93.00;;;;;;5086496;28;19955;-74
2022/12/14 02:36:59;;;;;;;;;;;-0.50;92.90;;;;;;5086962;28;19912;-74
2022/12/14 02:39:24;;;;;;;;;;;-0.60;92.90;;;;;;5088014;28;19945;-74
2022/12/14 02:42:16;;;;;;;;;;;-0.50;93.00;;;;;;5086745;28;19912;-74
2022/12/14 02:44:41;;;;;;;;;;;-0.60;92.90;;;;;;5083186;28;20030;-74
2022/12/14 02:47:25;;;;;;;;;;;-0.60;92.90;;;;;;5087171;28;19995;-73
2022/12/14 02:50:02;;;;;;;;;;;-0.60;92.90;;;;;;5086654;28;19908;-73
2022/12/14 02:52:28;;;;;;;;;;;-0.60;92.90;;;;;;5086973;28;19918;-74
2022/12/14 02:54:56;;;;;;;;;;;-0.60;92.90;;;;;;5086834;28;19919;-73
2022/12/14 02:57:25;;;;;;;;;;;-0.60;92.90;;;;;;5088997;28;19916;-74
2022/12/14 02:59:53;;;;;;;;;;;-0.60;92.90;;;;;;5085501;28;19920;-74
2022/12/14 03:02:18;;;;;;;;;;;-0.60;92.90;;;;;;5084898;28;19916;-74
2022/12/14 03:04:47;;;;;;;;;;;-0.60;92.90;;;;;;5085852;28;19958;-74
2022/12/14 03:07:22;;;;;;;;;;;-0.60;92.90;;;;;;5066999;28;20526;-74
2022/12/14 03:09:48;;;;;;;;;;;-0.60;92.90;;;;;;5085875;28;19912;-73
2022/12/14 03:12:14;;;;;;;;;;;-0.60;92.90;;;;;;5069883;28;20727;-74
2022/12/14 03:14:44;;;;;;;;;;;-0.60;92.80;;;;;;5086625;28;20422;-74
2022/12/14 03:17:13;;;;;;;;;;;-0.60;92.80;;;;;;5086533;28;19912;-74
2022/12/14 03:19:45;;;;;;;;;;;-0.60;92.80;;;;;;5086000;28;19912;-74
2022/12/14 03:22:17;;;;;;;;;;;-0.60;92.80;;;;;;5086265;28;19960;-73
2022/12/14 03:24:46;;;;;;;;;;;-0.60;92.80;;;;;;5085973;28;19912;-74
2022/12/14 03:27:14;;;;;;;;;;;-0.60;92.80;;;;;;5085983;28;20280;-74
2022/12/14 03:29:45;;;;;;;;;;;-0.60;92.80;;;;;;5087095;28;19916;-74
2022/12/14 03:32:12;;;;;;;;;;;-0.60;92.80;;;;;;5086271;28;19912;-73
2022/12/14 03:34:41;;;;;;;;;;;-0.60;92.80;;;;;;5081318;28;20315;-74
2022/12/14 03:37:10;;;;;;;;;;;-0.60;92.80;;;;;;5066495;28;19916;-74
2022/12/14 03:39:37;;;;;;;;;;;-0.60;92.80;;;;;;5078870;28;19920;-74
2022/12/14 03:42:20;;;;;;;;;;;-0.60;92.80;;;;;;5076307;28;19920;-74
2022/12/14 03:45:04;;;;;;;;;;;-0.60;92.80;;;;;;5085710;28;19928;-74
2022/12/14 03:47:33;;;;;;;;;;;-0.60;92.80;;;;;;5076596;28;19916;-74
2022/12/14 03:49:59;;;;;;;;;;;-0.60;92.80;;;;;;5069527;28;19919;-74
2022/12/14 03:52:25;;;;;;;;;;;-0.60;92.80;;;;;;5069914;28;19908;-74
2022/12/14 03:54:56;;;;;;;;;;;-0.60;92.80;;;;;;5085520;28;19971;-74
2022/12/14 03:57:44;;;;;;;;;;;-0.60;92.80;;;;;;5069351;28;19923;-74
2022/12/14 04:00:12;;;;;;;;;;;-0.60;92.80;;;;;;5069084;28;19913;-74
2022/12/14 04:02:51;;;;;;;;;;;-0.60;92.80;;;;;;5061777;28;19985;-74
2022/12/14 04:05:25;;;;;;;;;;;-0.60;92.80;;;;;;5089512;28;20617;-74
2022/12/14 04:07:58;;;;;;;;;;;-0.60;92.80;;;;;;5070634;28;19944;-74
2022/12/14 04:19:00;;;;;;;;;;;-0.60;92.80;;;;;;5069392;28;19973;-74
2022/12/14 04:21:26;;;;;;;;;;;-0.70;92.70;;;;;;5050645;28;19916;-74
2022/12/14 04:26:42;;;;;;;;;;;-0.60;92.70;;;;;;5109550;28;20285;-74
2022/12/14 04:31:59;;;;;;;;;;;-0.60;92.70;;;;;;5109160;28;19919;-74
2022/12/14 04:34:26;;;;;;;;;;;-0.60;92.70;;;;;;5109506;28;20470;-74
2022/12/14 04:36:54;;;;;;;;;;;-0.60;92.70;;;;;;5082241;28;19953;-74
2022/12/14 04:39:34;;;;;;;;;;;-0.60;92.70;;;;;;5088273;28;19908;-74
2022/12/14 04:42:01;;;;;;;;;;;-0.60;92.70;;;;;;5099719;28;19951;-74
2022/12/14 04:44:32;;;;;;;;;;;-0.60;92.70;;;;;;5088392;28;20007;-74
2022/12/14 04:46:59;;;;;;;;;;;-0.60;92.70;;;;;;5088482;28;20431;-74
2022/12/14 04:49:27;;;;;;;;;;;-0.70;92.70;;;;;;5088044;28;20363;-74
2022/12/14 04:52:03;;;;;;;;;;;-0.60;92.70;;;;;;5088382;28;19935;-73
2022/12/14 04:54:48;;;;;;;;;;;-0.60;92.70;;;;;;5088932;28;19962;-73
2022/12/14 04:57:37;;;;;;;;;;;-0.60;92.70;;;;;;5088423;28;19912;-74
2022/12/14 05:00:04;;;;;;;;;;;-0.60;92.70;;;;;;5088295;28;19922;-73
2022/12/14 05:02:48;;;;;;;;;;;-0.60;93.00;;;;;;5088924;28;19912;-74
2022/12/14 05:05:16;;;;;;;;;;;-0.60;92.70;;;;;;5088175;28;19912;-74
2022/12/14 05:07:57;;;;;;;;;;;-0.60;92.70;;;;;;5088358;28;19935;-74
2022/12/14 05:10:34;;;;;;;;;;;-0.60;92.70;;;;;;5087853;28;20456;-74
2022/12/14 05:12:59;;;;;;;;;;;-0.60;92.70;;;;;;5088322;28;19969;-74
2022/12/14 05:15:31;;;;;;;;;;;-0.60;92.70;;;;;;5083749;28;19941;-74
2022/12/14 05:18:00;;;;;;;;;;;-0.60;92.70;;;;;;5075802;28;19946;-74
2022/12/14 05:20:26;;;;;;;;;;;-0.60;92.70;;;;;;5108303;28;19920;-73
2022/12/14 05:22:51;;;;;;;;;;;-0.60;92.70;;;;;;5108776;28;19965;-74
2022/12/14 05:25:17;;;;;;;;;;;-0.60;92.70;;;;;;5108268;28;19908;-74
2022/12/14 05:27:42;;;;;;;;;;;-0.70;92.60;;;;;;5108333;28;19946;-74
2022/12/14 05:30:08;;;;;;;;;;;-0.60;92.70;;;;;;5105445;28;21465;-73
2022/12/14 05:32:34;;;;;;;;;;;-0.60;92.70;;;;;;5087412;28;20040;-74
2022/12/14 05:35:00;;;;;;;;;;;-0.60;92.70;;;;;;5083164;28;19913;-74
2022/12/14 05:37:26;;;;;;;;;;;-0.60;92.70;;;;;;5085454;28;19916;-73
2022/12/14 05:39:51;;;;;;;;;;;-0.60;92.70;;;;;;5087739;28;20364;-74
2022/12/14 05:42:16;;;;;;;;;;;-0.60;92.70;;;;;;5087594;28;20061;-74
2022/12/14 05:44:42;;;;;;;;;;;-0.60;92.70;;;;;;5087510;28;19912;-74
2022/12/14 05:47:07;;;;;;;;;;;-0.60;92.70;;;;;;5088577;28;19983;-74
2022/12/14 05:49:33;;;;;;;;;;;-0.60;92.70;;;;;;5087394;28;20310;-74
2022/12/14 05:51:58;;;;;;;;;;;-0.60;92.60;;;;;;5100693;28;19926;-74
2022/12/14 05:54:24;;;;;;;;;;;-0.60;92.60;;;;;;5107500;28;19923;-74
2022/12/14 05:56:49;;;;;;;;;;;-0.60;92.70;;;;;;5107602;28;19953;-74
2022/12/14 05:59:16;;;;;;;;;;;-0.60;92.60;;;;;;5108002;28;19915;-73
2022/12/14 06:01:42;;;;;;;;;;;-0.60;92.90;;;;;;5107567;28;20427;-74
2022/12/14 06:04:09;;;;;;;;;;;-0.60;92.70;;;;;;5107686;28;20376;-74
2022/12/14 06:06:34;;;;;;;;;;;-0.70;92.60;;;;;;5090364;28;19924;-74
2022/12/14 06:09:00;;;;;;;;;;;-0.60;92.60;;;;;;5086661;28;19916;-74
2022/12/14 06:11:25;;;;;;;;;;;-0.60;92.60;;;;;;5086929;28;20289;-74
2022/12/14 06:13:51;;;;;;;;;;;-0.60;92.60;;;;;;5087051;28;19920;-74
2022/12/14 06:16:20;;;;;;;;;;;-0.60;92.60;;;;;;5087674;28;19992;-74
2022/12/14 06:18:47;;;;;;;;;;;-0.60;92.60;;;;;;5069569;28;19924;-74
2022/12/14 06:21:14;;;;;;;;;;;-0.60;92.60;;;;;;5090759;28;19999;-74
2022/12/14 06:23:39;;;;;;;;;;;-0.60;92.60;;;;;;5107759;28;19912;-73
2022/12/14 06:26:05;;;;;;;;;;;-0.60;92.60;;;;;;5107340;28;19919;-74
2022/12/14 06:28:31;;;;;;;;;;;-0.70;92.50;;;;;;5107695;28;19922;-74
2022/12/14 06:30:57;;;;;;;;;;;-0.60;92.60;;;;;;5098863;28;19912;-74
2022/12/14 06:33:22;;;;;;;;;;;-0.60;92.60;;;;;;5092780;28;19976;-74
2022/12/14 06:35:48;;;;;;;;;;;-0.60;92.60;;;;;;5086622;28;19916;-74
2022/12/14 06:38:13;;;;;;;;;;;-0.60;92.60;;;;;;5086756;28;20033;-74
2022/12/14 06:40:39;;;;;;;;;;;-0.60;92.60;;;;;;5104502;28;19955;-74
2022/12/14 06:43:05;;;;;;;;;;;-0.60;92.60;;;;;;5105205;28;19916;-74
2022/12/14 06:45:30;;;;;;;;;;;-0.60;92.60;;;;;;5066855;28;19912;-74
2022/12/14 06:47:57;;;;;;;;;;;-0.60;92.60;;;;;;5067134;28;20687;-74
2022/12/14 06:50:23;;;;;;;;;;;-0.60;92.60;;;;;;5048525;28;20731;-74
2022/12/14 06:52:48;;;;;;;;;;;-0.60;92.60;;;;;;5050744;28;19921;-74
2022/12/14 06:55:14;;;;;;;;;;;-0.60;92.60;;;;;;5106327;28;20065;-74
2022/12/14 06:57:40;;;;;;;;;;;-0.60;92.60;;;;;;5107350;28;19962;-73
2022/12/14 07:00:06;;;;;;;;;;;-0.60;92.60;;;;;;5094462;28;19937;-74
2022/12/14 07:02:32;;;;;;;;;;;-0.60;92.60;;;;;;5086832;28;19942;-74
2022/12/14 07:04:57;;;;;;;;;;;-0.60;92.60;;;;;;5087050;28;19912;-74
2022/12/14 07:07:23;;;;;;;;;;;-0.60;92.60;;;;;;5086785;28;19919;-74
2022/12/14 07:09:48;;;;;;;;;;;-0.60;92.60;;;;;;5087682;28;19954;-74
2022/12/14 07:12:14;;;;;;;;;;;-0.60;92.60;;;;;;5086510;28;19916;-74
2022/12/14 07:14:39;;;;;;;;;;;-0.60;92.60;;;;;;5086632;28;20372;-75
2022/12/14 07:17:05;;;;;;;;;;;-0.60;92.60;;;;;;5086666;28;20019;-75
2022/12/14 07:19:30;;;;;;;;;;;-0.60;92.60;;;;;;5086799;28;19916;-75
2022/12/14 07:21:56;;;;;;;;;;;-0.60;92.60;;;;;;5089602;28;20361;-75
2022/12/14 07:24:21;;;;;;;;;;;-0.60;92.60;;;;;;5072032;28;19972;-75
2022/12/14 07:26:47;;;;;;;;;;;-0.60;92.60;;;;;;5098322;28;19911;-75
2022/12/14 07:29:13;;;;;;;;;;;-0.60;92.60;;;;;;5110894;28;19915;-75
2022/12/14 07:31:39;;;;;;;;;;;-0.60;92.60;;;;;;5108175;28;20599;-75
2022/12/14 07:34:04;;;;;;;;;;;-0.60;92.60;;;;;;5090711;28;20053;-75
2022/12/14 07:36:31;;;;;;;;;;;-0.60;92.60;;;;;;5089376;28;19912;-75
2022/12/14 07:38:57;;;;;;;;;;;-0.50;92.60;;;;;;5090122;28;19916;-75
2022/12/14 07:41:28;;;;;;;;;;;-0.50;92.60;;;;;;5089608;28;19981;-75
2022/12/14 07:43:54;;;;;;;;;;;-0.50;92.60;;;;;;5088231;28;19916;-75
2022/12/14 07:46:21;;;;;;;;;;;-0.50;92.60;;;;;;5069991;28;20317;-75
2022/12/14 07:48:47;;;;;;;;;;;-0.50;92.60;;;;;;5070021;28;19916;-75
2022/12/14 07:51:14;;;;;;;;;;;-0.50;92.60;;;;;;5069116;28;19908;-75
2022/12/14 07:53:39;;;;;;;;;;;-0.50;92.60;;;;;;5051722;28;19912;-75
2022/12/14 07:56:15;;;;;;;;;;;-0.50;92.60;;;;;;5069159;28;20374;-75
2022/12/14 07:58:41;;;;;;;;;;;-0.50;92.60;;;;;;5069844;28;20629;-75
2022/12/14 08:01:07;;;;;;;;;;;-0.50;92.60;;;;;;5089044;28;19970;-74
2022/12/14 08:03:33;;;;;;;;;;;-0.50;92.60;;;;;;5071810;28;19939;-75
2022/12/14 08:06:02;;;;;;;;;;;-0.50;92.60;;;;;;5089771;28;19956;-75
2022/12/14 08:08:27;;;;;;;;;;;-0.50;92.60;;;;;;5090074;28;19975;-75
2022/12/14 08:10:53;;;;;;;;;;;-0.50;92.60;;;;;;5093263;28;19953;-75
2022/12/14 08:13:18;;;;;;;;;;;-0.50;92.60;;;;;;5104212;28;19920;-75
2022/12/14 08:15:44;;;;;;;;;;;-0.50;92.60;;;;;;5069238;28;19966;-75
2022/12/14 08:18:09;;;;;;;;;;;-0.50;92.60;;;;;;5069712;28;19913;-75
2022/12/14 08:20:35;;;;;;;;;;;-0.50;92.60;;;;;;5068412;28;19968;-75
2022/12/14 08:23:00;;;;;;;;;;;-0.50;92.60;;;;;;5069230;28;19951;-74
2022/12/14 08:25:26;;;;;;;;;;;-0.50;92.50;;;;;;5082825;28;20316;-74
2022/12/14 08:27:51;;;;;;;;;;;-0.40;92.60;;;;;;5110130;28;19919;-75
2022/12/14 08:30:17;;;;;;;;;;;-0.50;92.70;;;;;;5109476;28;20365;-75
2022/12/14 08:32:42;;;;;;;;;;;-0.40;92.60;;;;;;5090681;28;19923;-75
2022/12/14 08:35:08;;;;;;;;;;;-0.50;92.80;;;;;;5097665;28;20404;-75
2022/12/14 08:37:33;;;;;;;;;;;-0.40;92.50;;;;;;5088027;28;19916;-75
2022/12/14 08:39:59;;;;;;;;;;;-0.40;92.50;;;;;;5088885;28;20003;-75
2022/12/14 08:42:24;;;;;;;;;;;-0.40;92.50;;;;;;5102135;28;20288;-75
2022/12/14 08:44:50;;;;;;;;;;;-0.40;92.50;;;;;;5077316;28;19908;-74
2022/12/14 08:47:15;;;;;;;;;;;-0.40;92.50;;;;;;5068730;28;19920;-75
2022/12/14 08:49:40;;;;;;;;;;;-0.40;92.50;;;;;;5068608;28;19948;-75
2022/12/14 08:52:06;;;;;;;;;;;-0.40;92.50;;;;;;5068557;28;19913;-75
2022/12/14 08:54:31;;;;;;;;;;;-0.40;92.50;;;;;;5068623;28;19916;-75
2022/12/14 08:56:57;;;;;;;;;;;-0.30;92.50;;;;;;5049703;28;19991;-75
2022/12/14 08:59:22;;;;;;;;;;;-0.30;92.50;;;;;;5068249;28;19920;-75
2022/12/14 09:01:48;;;;;;;;;;;-0.30;92.50;;;;;;5088565;28;19974;-75
2022/12/14 09:04:13;;;;;;;;;;;-0.30;92.50;;;;;;5088695;28;19919;-75
2022/12/14 09:06:39;;;;;;;;;;;-0.30;92.50;;;;;;5070546;28;19919;-75
2022/12/14 09:09:05;;;;;;;;;;;-0.30;92.50;;;;;;5088495;28;20391;-74
2022/12/14 09:11:31;;;;;;;;;;;-0.30;92.50;;;;;;5087973;28;19912;-74
2022/12/14 09:13:57;;;;;;;;;;;-0.20;92.50;;;;;;5089727;28;19927;-74
2022/12/14 09:16:25;;;;;;;;;;;-0.30;92.40;;;;;;5088453;28;19908;-74
2022/12/14 09:18:50;;;;;;;;;;;-0.20;92.50;;;;;;5088571;28;19912;-75
2022/12/14 09:21:16;;;;;;;;;;;-0.20;92.40;;;;;;5088071;28;19924;-75
2022/12/14 09:23:42;;;;;;;;;;;-0.20;92.40;;;;;;5088681;28;19939;-75
2022/12/14 09:26:07;;;;;;;;;;;-0.20;92.40;;;;;;5087972;28;20612;-74
2022/12/14 09:28:34;;;;;;;;;;;-0.20;92.40;;;;;;5088472;28;19916;-75
2022/12/14 09:31:02;;;;;;;;;;;-0.20;92.50;;;;;;5089114;28;19919;-75
2022/12/14 09:33:28;;;;;;;;;;;-0.20;92.50;;;;;;5070065;28;19919;-75
2022/12/14 09:36:04;;;;;;;;;;;-0.20;92.40;;;;;;5080848;28;19916;-75
2022/12/14 09:38:31;;;;;;;;;;;-0.10;92.50;;;;;;5084439;28;19991;-75
2022/12/14 09:40:58;;;;;;;;;;;-0.10;92.40;;;;;;5058898;28;21667;-74
2022/12/14 09:43:30;;;;;;;;;;;-0.10;92.40;;;;;;5075125;28;19916;-75
2022/12/14 09:45:59;;;;;;;;;;;-0.10;92.40;;;;;;5088163;28;19912;-74
2022/12/14 09:48:25;;;;;;;;;;;-0.10;92.40;;;;;;5095808;28;19911;-74
2022/12/14 09:50:51;;;;;;;;;;;-0.10;92.40;;;;;;5108025;28;20326;-75
2022/12/14 09:53:17;;;;;;;;;;;-0.10;92.40;;;;;;5108268;28;20300;-74
2022/12/14 09:55:48;;;;;;;;;;;-0.10;92.40;;;;;;5107878;28;19915;-74
2022/12/14 09:58:19;;;;;;;;;;;-0.10;92.40;;;;;;5107954;28;19912;-74
2022/12/14 10:00:46;;;;;;;;;;;-0.10;92.50;;;;;;5095085;28;19923;-74
2022/12/14 10:03:27;;;;;;;;;;;-0.10;92.40;;;;;;5087544;28;19912;-74
2022/12/14 10:05:52;;;;;;;;;;;-0.10;92.40;;;;;;5103685;28;19943;-75
2022/12/14 10:08:18;;;;;;;;;;;-0.10;92.50;;;;;;5096844;28;20415;-74
2022/12/14 10:11:02;;;;;;;;;;;-0.10;92.50;;;;;;5087217;28;19912;-74
2022/12/14 10:13:50;;;;;;;;;;;-0.10;92.50;;;;;;5087277;28;19926;-74
2022/12/14 10:16:16;;;;;;;;;;;0.00;92.80;;;;;;5047357;28;20439;-75
2022/12/14 10:18:47;;;;;;;;;;;-0.10;92.50;;;;;;5067375;28;19912;-74
2022/12/14 10:21:14;;;;;;;;;;;-0.10;92.50;;;;;;5075224;28;20388;-74
2022/12/14 10:23:44;;;;;;;;;;;0.00;92.50;;;;;;5087422;28;19912;-74
2022/12/14 10:26:13;;;;;;;;;;;-0.10;92.50;;;;;;5086991;28;19920;-74
2022/12/14 10:28:42;;;;;;;;;;;0.00;92.50;;;;;;5068949;28;19912;-74
2022/12/14 10:31:10;;;;;;;;;;;0.00;92.50;;;;;;5086976;28;19916;-74
2022/12/14 10:33:37;;;;;;;;;;;0.00;92.50;;;;;;5087165;28;20007;-75
2022/12/14 10:36:03;;;;;;;;;;;0.00;92.50;;;;;;5079979;28;19908;-74
2022/12/14 10:38:38;;;;;;;;;;;0.00;92.50;;;;;;5087846;28;19916;-74
2022/12/14 10:41:17;;;;;;;;;;;0.00;92.50;;;;;;5086571;28;19916;-75
2022/12/14 10:43:47;;;;;;;;;;;0.00;92.50;;;;;;5087018;28;19986;-74
2022/12/14 10:46:21;;;;;;;;;;;0.10;92.50;;;;;;5086806;28;19989;-74
2022/12/14 10:48:54;;;;;;;;;;;0.10;92.40;;;;;;5087088;28;19912;-75
2022/12/14 10:51:25;;;;;;;;;;;0.20;92.40;;;;;;5085961;28;19919;-74
2022/12/14 10:53:55;;;;;;;;;;;0.20;92.40;;;;;;5088408;28;19912;-74
2022/12/14 10:56:28;;;;;;;;;;;0.20;92.40;;;;;;5110877;28;19933;-74
2022/12/14 10:59:13;;;;;;;;;;;0.20;92.40;;;;;;5111288;28;19912;-74
2022/12/14 11:01:38;;;;;;;;;;;0.20;92.40;;;;;;5111036;28;20018;-74
2022/12/14 11:04:05;;;;;;;;;;;0.30;92.30;;;;;;5111434;28;20015;-74
2022/12/14 11:06:32;;;;;;;;;;;0.30;92.30;;;;;;5111083;28;19918;-74
2022/12/14 11:08:57;;;;;;;;;;;0.30;92.30;;;;;;5094832;28;19908;-74
2022/12/14 11:11:24;;;;;;;;;;;0.30;92.30;;;;;;5091375;28;20426;-74
2022/12/14 11:14:05;;;;;;;;;;;0.40;92.30;;;;;;5090741;28;19942;-74
2022/12/14 11:16:35;;;;;;;;;;;0.40;92.30;;;;;;5090505;28;19912;-74
2022/12/14 11:19:01;;;;;;;;;;;0.40;92.30;;;;;;5090807;28;20554;-74
2022/12/14 11:21:31;;;;;;;;;;;0.40;92.30;;;;;;5090532;28;20410;-74
2022/12/14 11:23:56;;;;;;;;;;;0.50;92.30;;;;;;5090602;28;20706;-74
2022/12/14 11:26:31;;;;;;;;;;;0.50;92.30;;;;;;5090035;28;20002;-74
2022/12/14 11:28:57;;;;;;;;;;;0.50;92.30;;;;;;5091138;28;19916;-74
2022/12/14 11:31:29;;;;;;;;;;;0.50;92.20;;;;;;5089621;28;20650;-74
2022/12/14 11:33:56;;;;;;;;;;;0.50;92.20;;;;;;5090416;28;19981;-74
2022/12/14 11:36:21;;;;;;;;;;;0.60;92.30;;;;;;5083140;28;19912;-74
2022/12/14 11:38:53;;;;;;;;;;;0.60;92.30;;;;;;5090120;28;19969;-74
2022/12/14 11:41:20;;;;;;;;;;;0.60;92.30;;;;;;5089926;28;19922;-73
2022/12/14 11:43:45;;;;;;;;;;;0.60;92.30;;;;;;5090561;28;19955;-74
2022/12/14 11:46:11;;;;;;;;;;;0.60;92.30;;;;;;5107672;28;19951;-74
2022/12/14 11:48:44;;;;;;;;;;;0.70;92.30;;;;;;5107408;28;19916;-74
2022/12/14 11:51:11;;;;;;;;;;;0.70;92.20;;;;;;5089485;28;19912;-74
2022/12/14 11:53:37;;;;;;;;;;;0.70;92.30;;;;;;5090465;28;19920;-74
2022/12/14 11:56:04;;;;;;;;;;;0.70;92.20;;;;;;5088559;28;19931;-74
2022/12/14 11:58:31;;;;;;;;;;;0.80;92.20;;;;;;5090111;28;19912;-74
2022/12/14 12:00:58;;;;;;;;;;;0.80;92.20;;;;;;5090739;28;19927;-74
2022/12/14 12:03:26;;;;;;;;;;;0.80;92.20;;;;;;5090096;28;20357;-74
2022/12/14 12:05:52;;;;;;;;;;;0.80;92.20;;;;;;5089202;28;20000;-74
2022/12/14 12:08:26;;;;;;;;;;;0.90;92.50;;;;;;5089448;28;19908;-74
2022/12/14 12:10:52;;;;;;;;;;;0.80;92.20;;;;;;5089407;28;19916;-74
2022/12/14 12:13:33;;;;;;;;;;;0.90;92.20;;;;;;5089814;28;19927;-73
2022/12/14 12:16:19;;;;;;;;;;;0.90;92.20;;;;;;5089747;28;19912;-73
2022/12/14 12:19:00;;;;;;;;;;;0.90;92.10;;;;;;5090216;28;20395;-74
2022/12/14 12:21:36;;;;;;;;;;;0.90;92.10;;;;;;5089160;28;19916;-73
2022/12/14 12:24:02;;;;;;;;;;;0.90;92.10;;;;;;5089682;28;19919;-74
2022/12/14 12:26:30;;;;;;;;;;;0.90;92.40;;;;;;5089368;28;19912;-74
2022/12/14 12:29:00;;;;;;;;;;;0.90;92.20;;;;;;5089639;28;19943;-74
2022/12/14 12:31:30;;;;;;;;;;;0.90;92.20;;;;;;5089218;28;19955;-73
2022/12/14 12:33:58;;;;;;;;;;;0.90;92.20;;;;;;5089575;28;19908;-74
2022/12/14 12:36:23;;;;;;;;;;;0.90;92.30;;;;;;5089876;28;19916;-74
2022/12/14 12:38:59;;;;;;;;;;;0.90;92.30;;;;;;5071025;28;19923;-73
2022/12/14 12:41:25;;;;;;;;;;;0.90;92.30;;;;;;5088985;28;19927;-74
2022/12/14 12:43:58;;;;;;;;;;;0.90;92.30;;;;;;5089132;28;19912;-74
2022/12/14 12:46:27;;;;;;;;;;;0.90;92.30;;;;;;5088741;28;19912;-74
2022/12/14 12:48:57;;;;;;;;;;;0.90;92.30;;;;;;5070533;28;19923;-74
2022/12/14 12:51:32;;;;;;;;;;;0.90;92.30;;;;;;5088286;28;19912;-73
2022/12/14 12:54:00;;;;;;;;;;;0.90;92.30;;;;;;5084349;28;19961;-74
2022/12/14 12:56:42;;;;;;;;;;;0.90;92.30;;;;;;5097318;28;19964;-74
2022/12/14 12:59:10;;;;;;;;;;;0.90;92.30;;;;;;5088499;28;19972;-74
2022/12/14 13:01:37;;;;;;;;;;;0.90;92.30;;;;;;5087981;28;20388;-74
2022/12/14 13:04:09;;;;;;;;;;;0.90;92.60;;;;;;5089239;28;20368;-74
2022/12/14 13:06:49;;;;;;;;;;;0.90;92.30;;;;;;5088363;28;20390;-74
2022/12/14 13:09:28;;;;;;;;;;;0.90;92.30;;;;;;5087013;28;20365;-74
2022/12/14 13:11:54;;;;;;;;;;;0.90;92.30;;;;;;5070023;28;19912;-74
2022/12/14 13:14:25;;;;;;;;;;;0.90;92.30;;;;;;5077015;28;19920;-74
2022/12/14 13:16:52;;;;;;;;;;;0.90;92.30;;;;;;5080789;28;20393;-74
2022/12/14 13:19:28;;;;;;;;;;;0.90;92.30;;;;;;5095754;28;19970;-74
2022/12/14 13:21:54;;;;;;;;;;;0.90;92.30;;;;;;5086655;28;19927;-74
2022/12/14 13:24:21;;;;;;;;;;;0.90;92.30;;;;;;5086316;28;20161;-74
2022/12/14 13:26:49;;;;;;;;;;;0.90;92.30;;;;;;5087005;28;20335;-74
2022/12/14 13:29:33;;;;;;;;;;;0.90;92.30;;;;;;5087083;28;19912;-74
2022/12/14 13:32:17;;;;;;;;;;;0.90;92.30;;;;;;5086319;28;19919;-74
2022/12/14 13:34:58;;;;;;;;;;;0.90;92.30;;;;;;5102592;28;19912;-74
2022/12/14 13:37:41;;;;;;;;;;;0.90;92.30;;;;;;5086141;28;19912;-74
2022/12/14 13:40:16;;;;;;;;;;;0.80;92.30;;;;;;5085944;28;19920;-74
2022/12/14 13:42:47;;;;;;;;;;;0.80;92.30;;;;;;5068188;28;19916;-74
2022/12/14 13:45:27;;;;;;;;;;;0.80;92.30;;;;;;5050118;28;19908;-74
2022/12/14 13:47:54;;;;;;;;;;;0.80;92.30;;;;;;5066566;28;19966;-74
2022/12/14 13:50:19;;;;;;;;;;;0.80;92.30;;;;;;5078750;28;19922;-74
2022/12/14 13:52:46;;;;;;;;;;;0.80;92.30;;;;;;5086738;28;19912;-74
2022/12/14 13:55:31;;;;;;;;;;;0.80;92.30;;;;;;5071053;28;19916;-74
2022/12/14 13:58:15;;;;;;;;;;;0.80;92.30;;;;;;5068430;28;19916;-74
2022/12/14 14:00:44;;;;;;;;;;;0.80;92.30;;;;;;5086114;28;20281;-74
2022/12/14 14:03:32;;;;;;;;;;;0.80;92.30;;;;;;5084571;28;19916;-74
2022/12/14 14:06:07;;;;;;;;;;;0.80;92.30;;;;;;5071989;28;19922;-74
2022/12/14 14:08:34;;;;;;;;;;;0.80;92.30;;;;;;5085186;28;19912;-74
2022/12/14 14:11:17;;;;;;;;;;;0.80;92.30;;;;;;5080489;28;19916;-74
2022/12/14 14:13:43;;;;;;;;;;;0.80;92.30;;;;;;5081848;28;19922;-74
2022/12/14 14:16:17;;;;;;;;;;;0.80;92.30;;;;;;5081233;28;19920;-74
2022/12/14 14:19:03;;;;;;;;;;;0.80;92.30;;;;;;5079374;28;20292;-74
2022/12/14 14:21:40;;;;;;;;;;;0.70;92.30;;;;;;5086108;28;19923;-74
2022/12/14 14:24:11;;;;;;;;;;;0.70;92.30;;;;;;5082321;28;19916;-74
2022/12/14 14:26:39;;;;;;;;;;;0.70;92.30;;;;;;5106535;28;19918;-74
2022/12/14 14:29:04;;;;;;;;;;;0.70;92.40;;;;;;5098156;28;19916;-74
2022/12/14 14:31:47;;;;;;;;;;;0.70;92.30;;;;;;5090100;28;20611;-74
2022/12/14 14:34:17;;;;;;;;;;;0.70;92.40;;;;;;5107587;28;19915;-74
2022/12/14 14:36:44;;;;;;;;;;;0.70;92.30;;;;;;5107361;28;19908;-74
2022/12/14 14:39:28;;;;;;;;;;;0.70;92.30;;;;;;5090160;28;19973;-74
2022/12/14 14:41:54;;;;;;;;;;;0.60;92.30;;;;;;5107275;28;19916;-74
2022/12/14 14:44:41;;;;;;;;;;;0.60;92.30;;;;;;5095335;28;20389;-74
2022/12/14 14:47:32;;;;;;;;;;;0.60;92.30;;;;;;5087236;28;19952;-74